createdAt,value
2023-04-26T00:06:17.263Z,5.330129076086957
2023-04-26T00:13:52.374Z,5.19412037520903
2023-04-26T00:20:12.933Z,5.019081182065217
2023-04-26T00:32:00.647Z,4.961033523202341
2023-04-26T00:38:20.788Z,4.800622517767559
2023-04-26T00:44:40.162Z,4.7569613555602
2023-04-26T00:53:51.971Z,4.660956443352843
2023-04-26T01:06:50.798Z,4.663604593436454
2023-04-26T01:13:11.579Z,4.468505696070234
2023-04-26T01:19:31.409Z,4.615268342391304
2023-04-26T01:25:51.752Z,4.681151363921405
2023-04-26T01:32:11.223Z,4.688436716137123
2023-04-26T01:38:30.331Z,4.588901154891304
2023-04-26T01:44:50.135Z,4.635780727424749
2023-04-26T01:51:11.033Z,4.784350177675585
2023-04-26T01:57:31.452Z,4.889187918060201
2023-04-26T02:06:15.621Z,4.861771007525084
2023-04-26T02:12:37.114Z,4.86953125
2023-04-26T02:25:51.035Z,4.579890651128763
2023-04-26T02:32:12.623Z,4.442923024665552
2023-04-26T02:38:33.490Z,4.4060037364130435
2023-04-26T02:44:54.500Z,4.325864208821071
2023-04-26T02:51:15.378Z,4.307028637123746
2023-04-26T02:57:34.868Z,4.416975857023411
2023-04-26T03:03:54.679Z,4.268138586956522
2023-04-26T03:10:16.310Z,4.340136392140468
2023-04-26T03:17:49.837Z,4.345827889841137
2023-04-26T03:29:32.521Z,4.359485394021739
2023-04-26T03:37:03.889Z,4.526646765259198
2023-04-26T03:43:23.532Z,4.468414245401338
2023-04-26T03:53:08.760Z,4.424171718227425
2023-04-26T03:59:59.904Z,4.342634955058529
2023-04-26T04:06:19.521Z,4.245471885451505
2023-04-26T04:12:40.155Z,4.099569528637124
2023-04-26T04:19:01.978Z,4.1362961172658865
2023-04-26T04:25:23.353Z,4.129805079431438
2023-04-26T04:31:45.053Z,4.039413278637124
2023-04-26T04:42:53.286Z,4.399709317516722
2023-04-26T04:49:15.994Z,4.545575747282609
2023-04-26T05:04:35.311Z,4.550318117683947
2023-04-26T05:10:57.587Z,4.482173651755853
2023-04-26T05:17:21.423Z,4.6531530884197325
2023-04-26T05:24:09.164Z,4.800167877299331
2023-04-26T05:30:53.653Z,5.033734845317725
2023-04-26T05:37:16.082Z,5.653918661162208
2023-04-26T05:43:40.630Z,6.1205215301003335
2023-04-26T05:50:05.930Z,6.088801865593645
2023-04-26T05:56:30.920Z,5.8175761653428095
2023-04-26T06:02:59.673Z,6.097736595944816
2023-04-26T06:14:29.282Z,7.07530244042642
2023-04-26T06:22:51.104Z,7.106965274874581
2023-04-26T06:29:13.649Z,7.336202706939798
2023-04-26T06:35:35.055Z,7.740500888377925
2023-04-26T06:42:00.727Z,7.89340705999164
2023-04-26T06:48:22.263Z,8.00489391722408
2023-04-26T06:54:56.672Z,8.145652173913044
2023-04-26T07:03:39.475Z,8.277203307901338
2023-04-26T07:10:02.738Z,8.184204509824415
2023-04-26T07:16:28.101Z,8.187253736413044
2023-04-26T07:28:57.188Z,8.646656171613712
2023-04-26T07:41:59.073Z,9.23833089464883
2023-04-26T07:51:12.953Z,9.418780048076924
2023-04-26T07:57:37.447Z,9.800520615593644
2023-04-26T08:04:01.914Z,10.44514854201505
2023-04-26T08:10:25.861Z,10.195070155727423
2023-04-26T08:20:53.151Z,9.57007276860368
2023-04-26T08:27:16.956Z,9.549999346780936
2023-04-26T08:35:56.461Z,10.048844455476589
2023-04-26T08:46:31.386Z,10.506769962374582
2023-04-26T08:55:03.534Z,10.070488215928094
2023-04-26T09:05:37.153Z,9.81911841555184
2023-04-26T09:12:02.272Z,9.762823996655516
2023-04-26T09:23:38.588Z,10.606033784489966
2023-04-26T09:34:10.987Z,9.484022914924749
2023-04-26T09:40:32.874Z,9.305869173285954
2023-04-26T09:46:55.308Z,9.47874229201505
2023-04-26T09:59:00.541Z,9.085335885242474
2023-04-26T10:05:23.385Z,9.233093384197323
2023-04-26T10:11:46.464Z,9.105083350752508
2023-04-26T10:18:08.707Z,9.131607310827759
2023-04-26T10:29:45.794Z,9.637357598244149
2023-04-26T10:36:05.984Z,9.751458638168895
2023-04-26T10:45:49.143Z,10.755272131061874
2023-04-26T10:54:24.815Z,9.58263547763378
2023-04-26T11:01:14.670Z,8.886786684782608
2023-04-26T11:07:35.903Z,8.906770615593645
2023-04-26T11:13:56.615Z,9.882803354933111
2023-04-26T11:20:17.707Z,10.127656641931438
2023-04-26T11:26:38.003Z,10.327630513168895
2023-04-26T11:32:59.166Z,10.609650658444817
2023-04-26T11:39:20.153Z,11.055054609113713
2023-04-26T11:45:40.823Z,12.000180941680604
2023-04-26T11:52:02.121Z,12.447605952132108
2023-04-26T11:59:01.474Z,11.982041048285964
2023-04-26T12:14:49.787Z,10.003090379389631
2023-04-26T12:21:10.571Z,9.820160953177258
2023-04-26T12:27:30.946Z,10.035341764214046
2023-04-26T12:33:51.691Z,9.90719128867057
2023-04-26T12:40:12.405Z,9.842934782608696
2023-04-26T12:46:32.993Z,9.594728522157192
2023-04-26T12:54:27.228Z,9.830732650501673
2023-04-26T13:00:48.089Z,10.521421012750837
2023-04-26T13:07:09.412Z,10.755982180183947
2023-04-26T13:13:42.395Z,10.963304765886287
2023-04-26T13:20:04.830Z,10.49503618833612
2023-04-26T13:26:27.614Z,10.360377691262542
2023-04-26T13:32:48.561Z,10.52774743938127
2023-04-26T13:45:11.221Z,11.242887750836122
2023-04-26T13:56:26.344Z,11.274748510660533
2023-04-26T14:08:49.050Z,10.685684051003344
2023-04-26T14:15:10.371Z,10.438756140259198
2023-04-26T14:21:31.030Z,10.24661959134615
2023-04-26T14:29:34.123Z,10.093360028219072
2023-04-26T14:35:55.039Z,10.199565609322757
2023-04-26T14:42:15.998Z,10.155750940635452
2023-04-26T14:48:37.331Z,10.417812630643814
2023-04-26T14:54:58.157Z,10.426244382316055
2023-04-26T15:01:19.681Z,10.174951661789297
2023-04-26T15:07:41.218Z,10.177442386078596
2023-04-26T15:14:02.748Z,10.097385817307691
2023-04-26T15:23:12.803Z,9.794991116220736
2023-04-26T15:33:16.472Z,9.493721258361205
2023-04-26T15:39:37.245Z,9.347385164088628
2023-04-26T15:46:00.367Z,9.565034489966555
2023-04-26T15:52:21.310Z,9.545053172031773
2023-04-26T15:58:42.499Z,9.32104933110368
2023-04-26T16:05:03.371Z,9.217280257107024
2023-04-26T16:13:18.980Z,9.268005983486622
2023-04-26T16:22:22.108Z,8.815702733068562
2023-04-26T16:34:44.456Z,8.835731082775919
2023-04-26T16:41:04.704Z,8.648708585911372
2023-04-26T16:52:44.215Z,8.890268342391304
2023-04-26T16:59:05.990Z,9.013320443143812
2023-04-26T17:05:26.793Z,9.088733930811037
2023-04-26T17:20:05.649Z,9.088036292851172
2023-04-26T17:26:28.343Z,8.940253318352843
2023-04-26T17:39:38.943Z,8.502753971571908
2023-04-26T17:48:37.919Z,8.358158052884615
2023-04-26T17:55:03.742Z,8.488779656145487
2023-04-26T18:01:26.085Z,8.505235550794314
2023-04-26T18:08:35.520Z,8.467064694816054
2023-04-26T18:16:28.952Z,8.405620950041806
2023-04-26T18:29:13.449Z,8.375582671404683
2023-04-26T18:35:39.238Z,8.268144465928094
2023-04-26T18:46:47.890Z,8.243212400710702
2023-04-26T18:53:09.030Z,8.234143107232441
2023-04-26T18:59:31.547Z,8.196334787834449
2023-04-26T19:10:40.348Z,8.205669941471573
2023-04-26T19:17:02.204Z,8.190695547658864
2023-04-26T19:23:27.708Z,8.16329431438127
2023-04-26T19:35:20.771Z,7.938878945443143
2023-04-26T19:41:41.700Z,7.869098818979934
2023-04-26T19:48:05.071Z,7.832452576295987
2023-04-26T20:07:28.062Z,7.652703673704014
2023-04-26T20:14:09.578Z,7.671925951086956
2023-04-26T20:20:41.712Z,7.654353051839466
2023-04-26T20:30:58.872Z,7.584542877299331
2023-04-26T20:37:23.616Z,7.4887345840301
2023-04-26T20:43:46.706Z,7.414598792851169
2023-04-26T20:52:01.052Z,7.324533601588628
2023-04-26T20:58:36.369Z,7.391114261078595
2023-04-26T21:04:57.394Z,7.230189825459865
2023-04-26T21:11:17.433Z,7.074883073787625
2023-04-26T21:18:41.080Z,6.962681594899665
2023-04-26T21:36:10.248Z,6.602646843645485
2023-04-26T21:43:39.564Z,6.630773150083613
2023-04-26T21:55:06.820Z,6.713315217391305
2023-04-26T22:01:30.998Z,6.671460859113712
2023-04-26T22:11:53.413Z,6.652597852215719
2023-04-26T22:18:15.726Z,6.383932117474916
2023-04-26T22:24:35.128Z,6.16991077027592
2023-04-26T22:30:55.276Z,6.174832775919732
2023-04-26T22:37:21.252Z,6.1230854149247484
2023-04-26T22:43:41.770Z,6.021215901964882
2023-04-26T22:50:01.348Z,5.8654623484531765
2023-04-26T22:56:22.372Z,5.769375130643812
2023-04-26T23:02:43.532Z,5.7399567568979935
2023-04-26T23:09:18.823Z,5.6536005434782615
2023-04-26T23:15:38.295Z,5.646129677048495
2023-04-26T23:21:58.022Z,5.42811389527592
2023-04-26T23:28:19.150Z,5.374547972408027
2023-04-26T23:34:39.285Z,5.39289689590301
2023-04-26T23:41:01.895Z,5.297948892140468
2023-04-26T23:47:23.158Z,5.286083167851171
2023-04-26T23:59:01.947Z,5.122732023411371
